UPR Marlboro, Maryland
Current Conditions -  °F | °C
As of 6:55 PM on Friday 19 Dec 2014 (Local Time) from KADW Reporting Station
Clear Clear  
Wind Chill: 29°   Ceiling: Unl
Heat Index: 36°   Visibility: 10mi
Dew Point: 22°   Wind: 8mph
Humidity: 58%   Direction: 320°NW
Pressure: 30.2"   Gusts: NA
Location:  38.8741°N, 76.7678°W
Report Text: KADW 192355Z 32007KT 10SM CLR 02/M05 A3020 RMK AO2A SLP231 T00211054 10041 20020 53020
Loading
Personal Weather Stations






























Interactive Weather Map New forecast layout! Learn more

10-Day Weather Forecast

Advertisements
Track Severe Weather on mobile